createdAt,value
2023-02-28T00:03:50.620Z,2.80
2023-02-28T00:08:54.125Z,2.65
2023-02-28T00:13:57.184Z,2.72
2023-02-28T00:19:00.582Z,3.65
2023-02-28T00:24:03.658Z,2.90
2023-02-28T00:29:07.334Z,2.40
2023-02-28T00:34:11.694Z,3.67
2023-02-28T00:39:15.318Z,2.88
2023-02-28T00:44:18.561Z,2.88
2023-02-28T00:49:21.990Z,2.35
2023-02-28T00:54:25.562Z,2.70
2023-02-28T00:59:29.101Z,2.53
2023-02-28T01:04:32.434Z,2.85
2023-02-28T01:09:38.366Z,3.15
2023-02-28T01:14:41.509Z,2.65
2023-02-28T01:19:45.267Z,3.20
2023-02-28T01:24:49.116Z,2.90
2023-02-28T01:29:52.596Z,2.92
2023-02-28T01:34:56.474Z,2.70
2023-02-28T01:39:59.741Z,3.70
2023-02-28T01:45:20.808Z,2.60
2023-02-28T01:50:31.126Z,2.85
2023-02-28T01:55:36.781Z,2.42
2023-02-28T02:00:42.168Z,3.45
2023-02-28T02:05:50.215Z,3.03
2023-02-28T02:10:58.550Z,2.87
2023-02-28T02:16:11.094Z,2.47
2023-02-28T02:21:20.088Z,2.30
2023-02-28T02:26:29.908Z,4.07
2023-02-28T02:31:43.444Z,3.00
2023-02-28T02:37:02.359Z,2.67
2023-02-28T02:42:17.257Z,3.13
2023-02-28T02:47:25.632Z,3.65
2023-02-28T02:52:38.082Z,2.25
2023-02-28T02:57:51.786Z,2.97
2023-02-28T03:02:57.124Z,3.20
2023-02-28T03:08:00.110Z,2.42
2023-02-28T03:13:40.656Z,3.38
2023-02-28T03:19:26.293Z,2.60
2023-02-28T03:24:48.440Z,2.50
2023-02-28T03:30:21.532Z,3.05
2023-02-28T03:35:39.139Z,3.55
2023-02-28T03:40:49.785Z,3.05
2023-02-28T03:45:55.632Z,3.05
2023-02-28T03:51:03.494Z,3.10
2023-02-28T03:56:24.241Z,3.55
2023-02-28T04:01:39.589Z,3.38
2023-02-28T04:06:43.674Z,3.38
2023-02-28T04:11:56.829Z,3.38
2023-02-28T04:16:59.876Z,3.00
2023-02-28T04:22:03.311Z,3.17
2023-02-28T04:27:06.516Z,3.00
2023-02-28T04:32:10.177Z,3.30
2023-02-28T04:37:14.463Z,2.65
2023-02-28T04:42:17.589Z,3.42
2023-02-28T04:47:20.709Z,3.22
2023-02-28T04:52:24.184Z,3.75
2023-02-28T04:57:27.178Z,3.30
2023-02-28T05:02:30.719Z,3.88
2023-02-28T05:07:34.596Z,4.03
2023-02-28T05:12:37.801Z,3.83
2023-02-28T05:17:41.260Z,3.72
2023-02-28T05:22:45.719Z,2.88
2023-02-28T05:27:49.408Z,3.15
2023-02-28T05:32:53.478Z,3.20
2023-02-28T05:37:56.652Z,3.35
2023-02-28T05:43:00.124Z,5.05
2023-02-28T05:48:04.181Z,3.80
2023-02-28T05:53:07.202Z,3.60
2023-02-28T05:58:10.596Z,4.03
2023-02-28T06:03:14.048Z,3.78
2023-02-28T06:08:17.276Z,4.00
2023-02-28T06:13:20.509Z,5.53
2023-02-28T06:18:24.033Z,3.65
2023-02-28T06:23:27.044Z,3.22
2023-02-28T06:28:30.642Z,3.83
2023-02-28T06:33:34.792Z,3.95
2023-02-28T06:38:38.538Z,4.93
2023-02-28T06:43:43.852Z,5.57
2023-02-28T06:48:48.497Z,3.97
2023-02-28T06:53:52.619Z,4.60
2023-02-28T06:58:55.667Z,6.20
2023-02-28T07:03:59.792Z,5.43
2023-02-28T07:09:02.831Z,4.95
2023-02-28T07:14:06.401Z,5.43
2023-02-28T07:19:09.439Z,4.55
2023-02-28T07:24:13.062Z,4.63
2023-02-28T07:29:16.029Z,4.85
2023-02-28T07:34:19.055Z,6.38
2023-02-28T07:39:23.476Z,7.05
2023-02-28T07:44:27.466Z,8.15
2023-02-28T07:49:30.436Z,9.60
2023-02-28T07:54:35.046Z,10.00
2023-02-28T07:59:38.017Z,10.30
2023-02-28T08:04:42.052Z,10.55
2023-02-28T08:09:45.978Z,10.23
2023-02-28T08:14:49.953Z,8.90
2023-02-28T08:19:52.972Z,10.52
2023-02-28T08:24:56.861Z,9.48
2023-02-28T08:30:00.046Z,7.82
2023-02-28T08:35:04.356Z,8.90
2023-02-28T08:40:08.279Z,8.00
2023-02-28T08:45:12.046Z,7.35
2023-02-28T08:50:16.129Z,7.85
2023-02-28T08:55:19.373Z,7.60
2023-02-28T09:00:23.354Z,8.30
2023-02-28T09:05:26.675Z,8.95
2023-02-28T09:10:30.157Z,7.93
2023-02-28T09:15:33.534Z,7.47
2023-02-28T09:20:40.874Z,8.15
2023-02-28T09:25:48.697Z,6.82
2023-02-28T09:30:55.942Z,7.95
2023-02-28T09:36:01.923Z,7.10
2023-02-28T09:41:16.416Z,7.15
2023-02-28T09:46:42.927Z,7.97
2023-02-28T09:51:45.839Z,7.47
2023-02-28T09:56:53.436Z,4.65
2023-02-28T10:02:15.046Z,6.60
2023-02-28T10:07:40.150Z,6.75
2023-02-28T10:12:47.302Z,6.35
2023-02-28T10:18:08.493Z,7.03
2023-02-28T10:23:22.038Z,7.00
2023-02-28T10:28:28.419Z,8.10
2023-02-28T10:33:33.077Z,7.35
2023-02-28T10:38:39.457Z,6.38
2023-02-28T10:48:59.833Z,6.88
2023-02-28T10:54:04.459Z,5.97
2023-02-28T10:59:10.284Z,5.13
2023-02-28T11:04:40.690Z,5.38
2023-02-28T11:09:48.787Z,5.57
2023-02-28T11:15:04.392Z,7.40
2023-02-28T11:20:19.496Z,6.60
2023-02-28T11:25:32.371Z,7.28
2023-02-28T11:30:39.104Z,8.88
2023-02-28T11:35:42.284Z,7.38
2023-02-28T11:41:01.293Z,5.68
2023-02-28T11:46:14.290Z,6.22
2023-02-28T11:51:30.326Z,7.13
2023-02-28T12:01:56.526Z,6.72
2023-02-28T12:07:16.604Z,6.47
2023-02-28T12:12:26.875Z,7.10
2023-02-28T12:18:05.498Z,7.28
2023-02-28T12:23:48.527Z,6.40
2023-02-28T12:29:00.268Z,8.02
2023-02-28T12:34:13.341Z,6.78
2023-02-28T12:39:25.684Z,7.07
2023-02-28T12:44:45.556Z,6.28
2023-02-28T12:50:03.418Z,6.05
2023-02-28T12:55:26.536Z,5.15
2023-02-28T13:00:39.006Z,5.05
2023-02-28T13:06:03.473Z,5.00
2023-02-28T13:11:13.136Z,6.88
2023-02-28T13:16:23.430Z,6.93
2023-02-28T13:21:31.323Z,6.30
2023-02-28T13:26:38.268Z,6.88
2023-02-28T13:32:09.754Z,6.22
2023-02-28T13:37:37.247Z,6.18
2023-02-28T13:42:46.343Z,5.75
2023-02-28T13:48:27.430Z,6.13
2023-02-28T13:53:43.554Z,5.15
2023-02-28T13:59:19.088Z,5.30
2023-02-28T14:04:35.352Z,5.10
2023-02-28T14:09:47.649Z,5.27
2023-02-28T14:14:51.335Z,6.35
2023-02-28T14:19:55.399Z,5.22
2023-02-28T14:25:17.289Z,5.78
2023-02-28T14:30:56.817Z,4.80
2023-02-28T14:36:12.143Z,3.70
2023-02-28T14:41:30.294Z,3.85
2023-02-28T14:46:39.806Z,4.65
2023-02-28T14:51:44.053Z,4.20
2023-02-28T14:56:51.391Z,5.05
2023-02-28T15:02:26.223Z,4.43
2023-02-28T15:07:29.895Z,3.60
2023-02-28T15:12:33.579Z,3.47
2023-02-28T15:17:37.468Z,4.32
2023-02-28T15:22:41.010Z,5.10
2023-02-28T15:27:49.751Z,4.68
2023-02-28T15:33:14.668Z,2.92
2023-02-28T15:38:27.414Z,9.38
2023-02-28T15:43:38.244Z,7.03
2023-02-28T15:48:56.280Z,4.80
2023-02-28T15:54:30.449Z,5.95
2023-02-28T15:59:33.856Z,5.15
2023-02-28T16:04:37.212Z,4.40
2023-02-28T16:09:40.200Z,7.30
2023-02-28T16:14:44.201Z,8.13
2023-02-28T16:19:47.207Z,9.13
2023-02-28T16:24:50.767Z,6.05
2023-02-28T16:29:55.237Z,5.78
2023-02-28T16:34:58.995Z,5.43
2023-02-28T16:40:03.094Z,5.60
2023-02-28T16:45:07.256Z,6.38
2023-02-28T16:50:23.192Z,5.10
2023-02-28T16:55:28.111Z,5.07
2023-02-28T17:00:33.875Z,6.32
2023-02-28T17:05:40.857Z,5.55
2023-02-28T17:10:44.047Z,5.75
2023-02-28T17:15:48.428Z,5.53
2023-02-28T17:20:51.639Z,5.47
2023-02-28T17:25:57.765Z,4.55
2023-02-28T17:31:01.498Z,5.93
2023-02-28T17:36:04.900Z,5.20
2023-02-28T17:41:09.560Z,5.95
2023-02-28T17:46:24.145Z,4.78
2023-02-28T17:51:27.855Z,5.47
2023-02-28T17:56:31.270Z,13.85
2023-02-28T18:01:35.574Z,10.93
2023-02-28T18:06:51.146Z,8.50
2023-02-28T18:11:56.554Z,7.65
2023-02-28T18:16:59.749Z,8.07
2023-02-28T18:22:02.898Z,6.60
2023-02-28T18:27:06.826Z,5.78
2023-02-28T18:32:10.578Z,6.35
2023-02-28T18:37:14.558Z,6.47
2023-02-28T18:42:18.063Z,6.57
2023-02-28T18:47:21.671Z,6.05
2023-02-28T18:52:25.224Z,7.05
2023-02-28T18:57:29.567Z,7.93
2023-02-28T19:02:32.798Z,6.88
2023-02-28T19:07:36.306Z,7.07
2023-02-28T19:12:40.130Z,8.63
2023-02-28T19:17:43.209Z,9.77
2023-02-28T19:22:46.256Z,7.88
2023-02-28T19:27:53.762Z,8.57
2023-02-28T19:32:57.350Z,9.35
2023-02-28T19:38:01.015Z,8.80
2023-02-28T19:43:06.180Z,10.10
2023-02-28T19:48:10.217Z,8.43
2023-02-28T19:53:13.266Z,9.98
2023-02-28T19:58:16.579Z,12.45
2023-02-28T20:03:20.215Z,8.70
2023-02-28T20:08:23.711Z,9.32
2023-02-28T20:13:28.479Z,10.05
2023-02-28T20:18:32.511Z,10.27
2023-02-28T20:23:38.729Z,9.60
2023-02-28T20:28:42.767Z,9.48
2023-02-28T20:33:47.109Z,10.02
2023-02-28T20:38:52.978Z,9.75
2023-02-28T20:43:58.510Z,11.35
2023-02-28T20:49:01.931Z,12.20
2023-02-28T20:54:05.584Z,10.40
2023-02-28T20:59:12.116Z,11.50
2023-02-28T21:04:15.293Z,14.17
2023-02-28T21:09:19.569Z,11.63
2023-02-28T21:14:22.665Z,12.77
2023-02-28T21:19:26.062Z,10.93
2023-02-28T21:24:29.401Z,9.98
2023-02-28T21:29:32.947Z,10.27
2023-02-28T21:34:36.428Z,13.50
2023-02-28T21:39:40.007Z,11.30
2023-02-28T21:44:43.554Z,11.57
2023-02-28T21:49:46.610Z,12.60
2023-02-28T21:54:50.177Z,9.77
2023-02-28T21:59:53.155Z,10.00
2023-02-28T22:04:56.259Z,7.50
2023-02-28T22:09:59.426Z,7.15
2023-02-28T22:15:02.547Z,7.63
2023-02-28T22:20:06.627Z,6.55
2023-02-28T22:25:10.223Z,5.95
2023-02-28T22:30:13.437Z,5.65
2023-02-28T22:35:19.725Z,5.68
2023-02-28T22:40:22.789Z,5.43
2023-02-28T22:45:27.745Z,3.00
2023-02-28T22:50:31.353Z,5.00
2023-02-28T22:55:34.385Z,4.05
2023-02-28T23:00:38.723Z,4.72
2023-02-28T23:05:42.408Z,5.13
2023-02-28T23:10:45.489Z,5.30
2023-02-28T23:15:48.482Z,4.15
2023-02-28T23:20:51.530Z,3.88
2023-02-28T23:25:54.619Z,4.72
2023-02-28T23:31:04.727Z,5.63
2023-02-28T23:36:10.334Z,4.57
2023-02-28T23:41:14.847Z,4.00
2023-02-28T23:46:19.835Z,4.40
2023-02-28T23:51:23.119Z,4.40
2023-02-28T23:56:26.172Z,3.80
